EW5799 Weather Reports


time (UTC)temp
F
wind
direction
speed
knots
gust
knots
rain 1hr
in
rain 24hr
in
rain mn
in
humidity
%
barometer
mb
20211025040002 76 104 0.0 0.9 0.00 0.00 0.00 93 1011.5
20211025034603 76 128 1.7 2.6 0.00 0.00 0.00 93 1011.3
20211025033141 77 148 0.9 2.6 0.00 0.00 0.00 92 1011.2
20211025031626 76 141 0.0 1.7 0.00 0.00 0.00 92 1011.1
20211025030257 77 144 1.7 2.6 0.00 0.08 0.00 92 1010.9
20211025024606 77 138 1.7 3.5 0.00 0.08 0.00 92 1010.8
20211025023213 77 108 1.7 2.6 0.00 0.08 0.00 92 1010.8
20211025021601 77 139 1.7 4.3 0.00 0.08 0.00 91 1010.6
20211025020109 77 103 3.5 7.0 0.00 0.34 0.00 91 1010.2
20211025014556 77 123 4.3 7.0 0.00 0.34 0.00 92 1009.8
20211025013100 77 119 5.2 8.7 0.00 0.34 0.00 91 1009.9
20211025011604 78 102 5.2 7.8 0.00 0.34 0.00 91 1009.9
20211025010057 78 99 6.1 8.7 0.00 1.12 0.00 90 1010.0
20211025004537 78 101 5.2 8.7 0.00 1.12 0.00 89 1010.0
20211025003030 78 117 5.2 9.6 0.00 1.12 0.00 90 1009.9
20211025001633 78 109 6.1 9.6 0.00 1.12 0.00 90 1009.7
20211025000034 78 93 6.1 9.6 0.00 1.31 0.00 89 1009.5
20211024234609 79 96 6.1 10.4 0.00 1.31 0.00 89 1009.5
20211024233056 79 98 6.1 10.4 0.00 1.31 0.00 89 1009.3
20211024231532 79 109 7.8 11.3 0.00 1.31 0.00 88 1009.0
20211024230012 79 88 7.0 11.3 0.00 1.34 0.00 87 1009.1
20211024224506 79 86 7.0 10.4 0.00 1.34 0.00 88 1009.0
20211024223004 80 88 6.1 10.4 0.00 1.34 0.00 88 1009.0
20211024221656 80 82 7.8 11.3 0.00 1.34 0.00 86 1008.9
20211024220132 80 116 7.0 13.0 0.00 1.39 0.00 86 1008.8
20211024214557 82 79 7.0 11.3 0.00 1.39 0.00 83 1008.7
20211024213059 83 129 4.3 7.8 0.00 1.39 0.00 80 1008.7
20211024211749 84 127 3.5 7.8 0.00 1.39 0.00 78 1008.7
20211024210105 84 146 0.9 6.1 0.00 1.39 1.39 78 1008.9
20211024204609 83 148 0.9 3.5 0.00 1.39 1.39 80 1009.0
20211024203041 83 132 2.6 8.7 0.00 1.39 1.39 82 1008.7
20211024201558 83 137 2.6 6.1 0.00 1.39 1.39 79 1008.8
20211024201507 83 111 1.7 4.3 0.00 1.39 1.39 80 1008.8
20211024200111 83 148 1.7 4.3 0.00 1.39 1.39 79 1009.0
20211024194616 83 128 2.6 5.2 0.00 1.39 1.39 82 1009.0
20211024193131 82 141 3.5 5.2 0.00 1.39 1.39 81 1009.3
20211024191634 81 91 3.5 5.2 0.00 1.39 1.39 84 1009.4
20211024190151 81 83 3.5 6.1 0.00 1.39 1.39 83 1009.6
20211024184643 81 93 2.6 6.1 0.00 1.39 1.39 82 1009.8
20211024183145 82 120 1.7 4.3 0.00 1.39 1.39 83 1010.1
20211024181635 81 113 2.6 4.3 0.00 1.39 1.39 83 1010.3
20211024180103 81 109 1.7 6.1 0.00 1.39 1.39 83 1010.6
20211024174706 81 169 3.5 6.1 0.00 1.39 1.39 84 1010.9
20211024173057 81 162 5.2 7.8 0.00 1.39 1.39 82 1010.9
20211024171641 80 140 3.5 7.8 0.00 1.39 1.39 85 1011.2
20211024170013 80 165 4.3 8.7 0.00 1.39 1.39 83 1011.5
20211024164508 79 140 3.5 7.0 0.00 1.39 1.39 85 1011.6
20211024163032 79 117 4.3 9.6 0.00 1.39 1.39 86 1011.8
20211024161511 79 122 5.2 10.4 0.00 1.39 1.39 87 1011.7
20211024160003 79 121 4.3 7.8 0.00 1.39 1.39 89 1011.8
20211024154709 78 87 6.1 9.6 0.00 1.39 1.39 89 1011.6
20211024154502 78 97 6.1 9.6 0.00 1.39 1.39 89 1011.6
20211024153207 78 101 4.3 7.8 0.00 1.39 1.39 89 1011.4
20211024151719 78 99 4.3 9.6 0.00 1.39 1.39 89 1011.4
20211024150143 78 133 5.2 12.2 0.00 1.39 1.39 88 1011.4
20211024144626 78 95 7.0 12.2 0.00 1.39 1.39 87 1011.3
20211024143058 78 115 5.2 13.0 0.00 1.39 1.39 87 1011.1
20211024141530 77 147 6.1 12.2 0.00 1.39 1.39 86 1010.7
20211024140046 77 112 9.6 13.9 0.00 1.39 1.39 87 1010.6
20211024134518 77 86 8.7 13.0 0.00 1.39 1.39 88 1010.4
20211024133025 76 96 7.8 11.3 0.00 1.39 1.39 90 1010.3
20211024131519 76 120 7.8 13.0 0.00 1.39 1.39 90 1010.1
20211024130110 76 107 8.7 12.2 0.00 1.39 1.39 91 1010.0
20211024124558 75 84 7.0 10.4 0.00 1.39 1.39 91 1010.0
20211024123104 75 94 6.1 10.4 0.00 1.39 1.39 92 1010.1
20211024121543 75 94 7.8 11.3 0.00 1.39 1.39 92 1010.1
20211024120144 75 118 6.1 12.2 0.00 1.39 1.39 91 1010.1
20211024114632 75 95 7.8 12.2 0.00 1.39 1.39 91 1010.2
20211024113037 76 89 9.6 14.8 0.00 1.39 1.39 91 1010.2
20211024111538 76 89 9.6 13.9 0.00 1.39 1.39 91 1010.1
20211024110034 76 91 7.0 12.2 0.00 1.39 1.39 91 1010.0
20211024104605 76 122 7.8 11.3 0.00 1.39 1.39 91 1010.0
20211024103004 75 99 7.8 11.3 0.00 1.39 1.39 92 1009.7
20211024101512 76 124 6.1 13.0 0.00 1.39 1.39 92 1009.7
20211024100130 76 90 7.0 10.4 0.00 1.39 1.39 90 1009.9
20211024094647 76 103 6.1 10.4 0.00 1.39 1.39 90 1009.9
20211024093134 76 102 5.2 8.7 0.00 1.39 1.39 90 1010.0
20211024091659 76 108 6.1 9.6 0.00 1.39 1.39 89 1010.1
20211024090144 76 91 5.2 10.4 0.00 1.39 1.39 89 1010.2
20211024084622 76 115 7.8 13.0 0.00 1.39 1.39 88 1010.3
20211024083259 76 98 7.8 12.2 0.00 1.39 1.39 88 1010.5
20211024081735 75 84 7.0 11.3 0.00 1.39 1.39 88 1010.4
20211024080116 75 130 6.1 10.4 0.00 1.39 1.39 88 1010.3
20211024074607 75 142 6.1 10.4 0.00 1.39 1.39 89 1010.3
20211024073122 75 143 7.0 11.3 0.00 1.39 1.39 88 1010.3
20211024071620 75 150 5.2 11.3 0.00 1.39 1.39 89 1010.4
20211024070054 75 128 6.1 9.6 0.00 1.39 1.39 88 1010.5
20211024064556 75 117 4.3 10.4 0.00 1.39 1.39 89 1010.5
20211024063055 75 122 5.2 13.0 0.00 1.39 1.39 89 1010.5
20211024061556 75 110 7.0 10.4 0.00 1.39 1.39 88 1010.6
20211024060051 75 75 7.8 12.2 0.00 1.39 1.39 89 1010.5
20211024054604 74 126 7.8 11.3 0.00 1.39 1.39 88 1010.7
20211024053059 74 107 7.0 11.3 0.00 1.39 1.39 89 1010.9
20211024051638 73 96 7.8 13.0 0.00 1.39 1.39 89 1011.1
20211024050041 73 113 7.8 13.9 0.00 1.39 1.39 92 1011.1
20211024044534 73 113 7.8 13.0 0.00 1.39 1.39 92 1011.2
20211024043101 72 103 7.0 12.2 0.00 1.39 1.39 91 1011.6
20211024041608 72 134 4.3 7.8 0.00 1.39 1.39 92 1011.9